Time;durP1;ratioP1;P1;durP2;ratioP2;P2;SDS_P1;SDS_P2;PMS_P1;PMS_P2;Temp;Humidity;BMP_temperature;BMP_pressure;BME280_temperature;BME280_humidity;BME280_pressure;Samples;Min_cycle;Max_cycle;Signal;HPM_P1;HPM_P2
2021/10/18 00:01:59;;;;;;;98.50;38.17;;;;;;;;;;5003899;28;20109;-72
2021/10/18 00:04:24;;;;;;;60.60;32.17;;;;;;;;;;5002605;28;20033;-73
2021/10/18 00:06:49;;;;;;;83.90;36.75;;;;;;;;;;4997101;28;20023;-72
2021/10/18 00:09:14;;;;;;;74.53;36.20;;;;;;;;;;4995210;28;20363;-73
2021/10/18 00:11:39;;;;;;;68.97;31.92;;;;;;;;;;5003199;28;20018;-73
2021/10/18 00:14:05;;;;;;;105.05;36.22;;;;;;;;;;4994940;28;20458;-73
2021/10/18 00:16:31;;;;;;;75.05;34.00;;;;;;;;;;4990381;28;20876;-73
2021/10/18 00:18:56;;;;;;;72.03;34.47;;;;;;;;;;5003138;28;20169;-72
2021/10/18 00:21:21;;;;;;;110.45;37.08;;;;;;;;;;5004618;28;20445;-73
2021/10/18 00:23:46;;;;;;;75.88;35.00;;;;;;;;;;4996790;28;20026;-72
2021/10/18 00:26:12;;;;;;;71.07;32.20;;;;;;;;;;4995910;28;20048;-72
2021/10/18 00:28:37;;;;;;;66.25;31.38;;;;;;;;;;5000459;28;20030;-72
2021/10/18 00:31:02;;;;;;;82.63;35.17;;;;;;;;;;4994525;28;20050;-73
2021/10/18 00:33:27;;;;;;;74.38;34.97;;;;;;;;;;4999457;28;20497;-72
2021/10/18 00:35:53;;;;;;;68.93;30.95;;;;;;;;;;4998045;28;20065;-71
2021/10/18 00:38:18;;;;;;;101.93;33.53;;;;;;;;;;5001579;28;20038;-72
2021/10/18 00:40:43;;;;;;;93.20;35.33;;;;;;;;;;4994832;28;20029;-73
2021/10/18 00:43:08;;;;;;;85.20;34.42;;;;;;;;;;5000736;28;20031;-73
2021/10/18 00:45:34;;;;;;;67.50;31.85;;;;;;;;;;4992315;28;20042;-72
2021/10/18 00:47:59;;;;;;;107.50;33.70;;;;;;;;;;4993234;28;20073;-72
2021/10/18 00:50:25;;;;;;;97.90;33.42;;;;;;;;;;4999778;28;20121;-72
2021/10/18 00:52:51;;;;;;;58.33;30.25;;;;;;;;;;4995750;28;20442;-72
2021/10/18 00:55:17;;;;;;;71.80;32.03;;;;;;;;;;4996951;28;20056;-72
2021/10/18 00:57:42;;;;;;;66.53;29.88;;;;;;;;;;4997362;28;20113;-72
2021/10/18 01:00:08;;;;;;;82.63;30.77;;;;;;;;;;5000672;28;20042;-72
2021/10/18 01:02:33;;;;;;;61.70;30.77;;;;;;;;;;4998329;28;20021;-73
2021/10/18 01:04:59;;;;;;;74.70;32.53;;;;;;;;;;4999666;28;20022;-73
2021/10/18 01:07:24;;;;;;;96.72;32.30;;;;;;;;;;5005773;28;20037;-72
2021/10/18 01:09:49;;;;;;;98.80;32.60;;;;;;;;;;5006949;28;20057;-72
2021/10/18 01:12:14;;;;;;;71.53;30.92;;;;;;;;;;4998607;28;20096;-71
2021/10/18 01:14:40;;;;;;;86.90;32.67;;;;;;;;;;4995214;28;20030;-72
2021/10/18 01:17:05;;;;;;;84.57;32.92;;;;;;;;;;4997564;28;20033;-73
2021/10/18 01:19:30;;;;;;;84.45;31.88;;;;;;;;;;4995981;28;20490;-72
2021/10/18 01:21:57;;;;;;;75.05;29.70;;;;;;;;;;5000503;28;20034;-72
2021/10/18 01:24:23;;;;;;;81.70;30.90;;;;;;;;;;5007441;28;20034;-72
2021/10/18 01:26:48;;;;;;;70.63;33.63;;;;;;;;;;4997201;28;20038;-72
2021/10/18 01:29:13;;;;;;;59.83;32.60;;;;;;;;;;4992802;28;20026;-72
2021/10/18 01:31:39;;;;;;;59.60;29.83;;;;;;;;;;4998425;28;20429;-72
2021/10/18 01:34:04;;;;;;;63.53;29.48;;;;;;;;;;5001836;28;20020;-72
2021/10/18 01:36:29;;;;;;;60.35;31.30;;;;;;;;;;4997584;28;20022;-72
2021/10/18 01:38:55;;;;;;;58.88;28.85;;;;;;;;;;4992096;28;20625;-72
2021/10/18 01:41:20;;;;;;;77.50;32.28;;;;;;;;;;5000417;28;20111;-72
2021/10/18 01:43:45;;;;;;;66.88;31.60;;;;;;;;;;4999136;28;20478;-73
2021/10/18 01:46:10;;;;;;;69.68;33.25;;;;;;;;;;4998714;28;20025;-72
2021/10/18 01:48:35;;;;;;;57.83;29.73;;;;;;;;;;5006636;28;20445;-73
2021/10/18 01:51:00;;;;;;;72.88;31.42;;;;;;;;;;4999653;28;20117;-72
2021/10/18 01:53:26;;;;;;;85.43;33.25;;;;;;;;;;4999419;28;20014;-73
2021/10/18 01:55:51;;;;;;;68.10;31.17;;;;;;;;;;5007922;28;20033;-71
2021/10/18 01:58:16;;;;;;;77.80;29.77;;;;;;;;;;5003118;28;20034;-71
2021/10/18 02:00:45;;;;;;;61.40;30.33;;;;;;;;;;4999653;28;20497;-71
2021/10/18 02:03:10;;;;;;;71.20;30.15;;;;;;;;;;4996149;28;20034;-72
2021/10/18 02:05:36;;;;;;;74.53;31.15;;;;;;;;;;4999670;28;20186;-71
2021/10/18 02:08:01;;;;;;;78.72;30.08;;;;;;;;;;4992650;28;20038;-73
2021/10/18 02:10:26;;;;;;;97.55;32.15;;;;;;;;;;4993706;28;20097;-72
2021/10/18 02:12:52;;;;;;;86.97;31.42;;;;;;;;;;4994813;28;20022;-72
2021/10/18 02:15:17;;;;;;;69.75;30.05;;;;;;;;;;4998256;28;20030;-73
2021/10/18 02:17:42;;;;;;;74.45;30.65;;;;;;;;;;4992943;28;20148;-71
2021/10/18 02:20:08;;;;;;;67.97;28.20;;;;;;;;;;4997516;28;20471;-71
2021/10/18 02:22:34;;;;;;;69.00;29.35;;;;;;;;;;5009339;28;20025;-72
2021/10/18 02:24:59;;;;;;;117.32;33.17;;;;;;;;;;5009675;28;20018;-71
2021/10/18 02:27:24;;;;;;;61.08;28.80;;;;;;;;;;4997750;28;20022;-73
2021/10/18 02:29:49;;;;;;;75.90;30.25;;;;;;;;;;4997619;28;20097;-72
2021/10/18 02:32:15;;;;;;;84.65;30.63;;;;;;;;;;5004634;28;20114;-72
2021/10/18 02:34:40;;;;;;;71.32;29.00;;;;;;;;;;5004112;28;20568;-72
2021/10/18 02:37:05;;;;;;;55.60;29.77;;;;;;;;;;4999047;28;20029;-72
2021/10/18 02:39:30;;;;;;;67.97;29.88;;;;;;;;;;4992638;28;20045;-71
2021/10/18 02:41:56;;;;;;;76.72;29.83;;;;;;;;;;4999566;28;20021;-72
2021/10/18 02:44:21;;;;;;;80.50;30.98;;;;;;;;;;4998886;28;20041;-72
2021/10/18 02:46:46;;;;;;;70.43;29.13;;;;;;;;;;5001461;28;20015;-71
2021/10/18 02:49:11;;;;;;;64.38;31.00;;;;;;;;;;5000170;28;20100;-71
2021/10/18 02:51:36;;;;;;;61.53;29.05;;;;;;;;;;4997724;28;20526;-72
2021/10/18 02:54:04;;;;;;;100.25;33.85;;;;;;;;;;4995436;28;20061;-72
2021/10/18 02:56:29;;;;;;;80.70;30.45;;;;;;;;;;4992235;28;20379;-73
2021/10/18 02:58:55;;;;;;;63.88;28.55;;;;;;;;;;4996667;28;20042;-71
2021/10/18 03:01:20;;;;;;;96.57;31.48;;;;;;;;;;4992444;28;20080;-72
2021/10/18 03:03:45;;;;;;;62.38;29.30;;;;;;;;;;4994788;28;20045;-72
2021/10/18 03:06:10;;;;;;;106.82;32.50;;;;;;;;;;4994037;28;20033;-72
2021/10/18 03:08:35;;;;;;;72.85;30.70;;;;;;;;;;4996386;28;20157;-72
2021/10/18 03:11:00;;;;;;;76.50;32.20;;;;;;;;;;4998627;28;20574;-73
2021/10/18 03:13:26;;;;;;;100.15;33.40;;;;;;;;;;4991532;28;20097;-73
2021/10/18 03:15:51;;;;;;;91.95;30.98;;;;;;;;;;5003958;28;20061;-71
2021/10/18 03:18:16;;;;;;;95.82;33.42;;;;;;;;;;4999566;28;20081;-72
2021/10/18 03:20:41;;;;;;;75.65;29.98;;;;;;;;;;4990232;28;20076;-74
2021/10/18 03:23:07;;;;;;;112.53;32.15;;;;;;;;;;4992579;28;20061;-73
2021/10/18 03:25:34;;;;;;;91.70;32.45;;;;;;;;;;4996465;28;20033;-73
2021/10/18 03:28:00;;;;;;;94.88;32.22;;;;;;;;;;4991461;28;20018;-73
2021/10/18 03:30:25;;;;;;;76.57;29.77;;;;;;;;;;4997536;28;20117;-75
2021/10/18 03:32:50;;;;;;;65.15;31.65;;;;;;;;;;4994159;28;20022;-74
2021/10/18 03:35:16;;;;;;;82.68;32.28;;;;;;;;;;4999663;28;20045;-74
2021/10/18 03:37:41;;;;;;;58.03;29.45;;;;;;;;;;4993854;28;20014;-74
2021/10/18 03:40:06;;;;;;;69.47;29.15;;;;;;;;;;4990466;28;20029;-74
2021/10/18 03:42:32;;;;;;;78.15;33.38;;;;;;;;;;4997924;28;20374;-74
2021/10/18 03:44:57;;;;;;;93.85;33.92;;;;;;;;;;4999109;28;20506;-73
2021/10/18 03:47:22;;;;;;;68.18;30.65;;;;;;;;;;4999191;28;20029;-74
2021/10/18 03:49:47;;;;;;;68.05;32.15;;;;;;;;;;4994543;28;20046;-73
2021/10/18 03:52:13;;;;;;;88.25;37.28;;;;;;;;;;4989163;28;20038;-75
2021/10/18 03:54:38;;;;;;;78.93;35.75;;;;;;;;;;4996931;28;20030;-73
2021/10/18 03:57:03;;;;;;;85.32;37.25;;;;;;;;;;4992394;28;20030;-74
2021/10/18 03:59:28;;;;;;;75.20;34.30;;;;;;;;;;4997614;28;20033;-73
2021/10/18 04:01:54;;;;;;;124.20;40.05;;;;;;;;;;4994416;28;20037;-74
2021/10/18 04:04:19;;;;;;;110.70;38.58;;;;;;;;;;4995757;28;20021;-74
2021/10/18 04:06:44;;;;;;;122.72;39.97;;;;;;;;;;4999147;28;20480;-74
2021/10/18 04:09:09;;;;;;;77.18;34.67;;;;;;;;;;5000664;28;20021;-74
2021/10/18 04:11:38;;;;;;;74.72;33.60;;;;;;;;;;4996300;28;20021;-74
2021/10/18 04:14:04;;;;;;;89.68;38.63;;;;;;;;;;4996081;28;20096;-73
2021/10/18 04:16:29;;;;;;;75.88;35.05;;;;;;;;;;4997819;28;20025;-72
2021/10/18 04:18:54;;;;;;;81.93;35.20;;;;;;;;;;5002702;28;20377;-73
2021/10/18 04:21:19;;;;;;;101.90;39.38;;;;;;;;;;5000614;28;20058;-74
2021/10/18 04:23:45;;;;;;;100.35;37.38;;;;;;;;;;4997391;28;20034;-72
2021/10/18 04:26:10;;;;;;;88.07;34.90;;;;;;;;;;4997491;28;20037;-71
2021/10/18 04:28:35;;;;;;;73.55;33.58;;;;;;;;;;4998653;28;20371;-73
2021/10/18 04:31:00;;;;;;;93.32;36.00;;;;;;;;;;4991619;28;20027;-72
2021/10/18 04:33:26;;;;;;;69.07;32.92;;;;;;;;;;5002074;28;20056;-73
2021/10/18 04:35:51;;;;;;;125.35;34.00;;;;;;;;;;5002113;28;20461;-73
2021/10/18 04:38:16;;;;;;;68.10;32.28;;;;;;;;;;5002700;28;20042;-71
2021/10/18 04:40:41;;;;;;;72.97;31.23;;;;;;;;;;5009661;28;20025;-72
2021/10/18 04:43:06;;;;;;;83.63;31.98;;;;;;;;;;5001050;28;20105;-72
2021/10/18 04:45:31;;;;;;;67.30;29.00;;;;;;;;;;4993866;28;20422;-73
2021/10/18 04:47:57;;;;;;;92.30;31.65;;;;;;;;;;4994079;28;20022;-72
2021/10/18 04:50:22;;;;;;;73.28;27.70;;;;;;;;;;5002028;28;20044;-72
2021/10/18 04:52:49;;;;;;;89.18;30.48;;;;;;;;;;4997524;28;20394;-73
2021/10/18 04:55:14;;;;;;;67.68;28.58;;;;;;;;;;4998357;28;20100;-72
2021/10/18 04:57:50;;;;;;;66.53;28.33;;;;;;;;;;4993599;28;20034;-74
2021/10/18 05:00:15;;;;;;;86.93;29.73;;;;;;;;;;5005155;28;20124;-73
2021/10/18 05:02:40;;;;;;;97.75;32.10;;;;;;;;;;5004091;28;20022;-73
2021/10/18 05:05:05;;;;;;;54.35;26.58;;;;;;;;;;5004034;28;20025;-73
2021/10/18 05:07:31;;;;;;;80.95;30.50;;;;;;;;;;5004127;28;20467;-72
2021/10/18 05:09:56;;;;;;;81.97;31.42;;;;;;;;;;5001991;28;20025;-72
2021/10/18 05:12:21;;;;;;;66.40;29.33;;;;;;;;;;5000942;28;20133;-60
2021/10/18 05:14:46;;;;;;;56.30;28.38;;;;;;;;;;5000898;28;20053;-60
2021/10/18 05:17:11;;;;;;;74.00;31.85;;;;;;;;;;4996342;28;20113;-60
2021/10/18 05:19:36;;;;;;;76.13;30.38;;;;;;;;;;5003963;28;20037;-60
2021/10/18 05:22:02;;;;;;;72.40;29.17;;;;;;;;;;5005042;28;20026;-61
2021/10/18 05:24:27;;;;;;;83.32;31.52;;;;;;;;;;5005078;28;20180;-59
2021/10/18 05:26:52;;;;;;;92.95;31.50;;;;;;;;;;4995323;28;20027;-61
2021/10/18 05:29:17;;;;;;;73.53;31.15;;;;;;;;;;5007200;28;20104;-59
2021/10/18 05:31:42;;;;;;;85.53;33.05;;;;;;;;;;4995446;28;20109;-60
2021/10/18 05:34:07;;;;;;;127.07;33.97;;;;;;;;;;4995128;28;20467;-61
2021/10/18 05:36:33;;;;;;;80.78;32.58;;;;;;;;;;4999969;28;20109;-61
2021/10/18 05:38:58;;;;;;;88.55;31.65;;;;;;;;;;4990913;28;20193;-61
2021/10/18 05:41:23;;;;;;;127.97;33.45;;;;;;;;;;4995429;28;20085;-60
2021/10/18 05:43:48;;;;;;;76.03;29.55;;;;;;;;;;5000114;28;20057;-61
2021/10/18 05:46:13;;;;;;;112.10;31.90;;;;;;;;;;4994083;28;20475;-60
2021/10/18 05:48:38;;;;;;;103.43;33.08;;;;;;;;;;4997061;28;20026;-60
2021/10/18 05:51:04;;;;;;;87.75;32.15;;;;;;;;;;4998386;28;20017;-61
2021/10/18 05:53:29;;;;;;;69.35;29.60;;;;;;;;;;5004445;28;20028;-61
2021/10/18 05:55:54;;;;;;;79.55;30.48;;;;;;;;;;5003244;28;20433;-59
2021/10/18 05:58:19;;;;;;;135.68;38.08;;;;;;;;;;4999060;28;20489;-61
2021/10/18 06:00:45;;;;;;;98.13;34.83;;;;;;;;;;5000783;28;20050;-60
2021/10/18 06:03:11;;;;;;;118.93;38.00;;;;;;;;;;5005135;28;20029;-61
2021/10/18 06:05:44;;;;;;;87.25;33.30;;;;;;;;;;4997676;28;20022;-60
2021/10/18 06:08:10;;;;;;;116.80;37.22;;;;;;;;;;4998407;28;20442;-60
2021/10/18 06:10:35;;;;;;;73.35;33.25;;;;;;;;;;4997930;28;20022;-61
2021/10/18 06:13:00;;;;;;;81.07;35.50;;;;;;;;;;4998014;28;20045;-61
2021/10/18 06:15:26;;;;;;;79.47;35.25;;;;;;;;;;5002775;28;20068;-61
2021/10/18 06:17:51;;;;;;;78.97;34.00;;;;;;;;;;5003321;28;20041;-60
2021/10/18 06:20:16;;;;;;;92.30;37.50;;;;;;;;;;5004535;28;20030;-60
2021/10/18 06:22:41;;;;;;;98.60;38.25;;;;;;;;;;5003423;28;20022;-59
2021/10/18 06:25:07;;;;;;;83.28;34.85;;;;;;;;;;5003267;28;20018;-60
2021/10/18 06:27:32;;;;;;;90.82;36.63;;;;;;;;;;5004971;28;20030;-60
2021/10/18 06:29:58;;;;;;;92.57;36.40;;;;;;;;;;5002092;28;20026;-59
2021/10/18 06:32:23;;;;;;;99.47;36.72;;;;;;;;;;5004670;28;20034;-59
2021/10/18 06:34:48;;;;;;;75.05;33.88;;;;;;;;;;5007296;28;20036;-61
2021/10/18 06:37:13;;;;;;;93.95;37.88;;;;;;;;;;5002561;28;20009;-60
2021/10/18 06:39:39;;;;;;;84.90;33.95;;;;;;;;;;5004743;28;20055;-60
2021/10/18 06:42:04;;;;;;;101.22;35.53;;;;;;;;;;5006338;28;20018;-60
2021/10/18 06:44:29;;;;;;;105.72;34.45;;;;;;;;;;4994343;28;20037;-60
2021/10/18 06:46:54;;;;;;;93.07;34.38;;;;;;;;;;5001950;28;20025;-61
2021/10/18 06:49:19;;;;;;;84.75;33.42;;;;;;;;;;5005081;28;20389;-60
2021/10/18 06:51:46;;;;;;;83.07;33.17;;;;;;;;;;4997648;28;20398;-60
2021/10/18 06:54:13;;;;;;;105.30;36.38;;;;;;;;;;4999330;28;20040;-60
2021/10/18 06:56:44;;;;;;;80.68;32.47;;;;;;;;;;4998508;28;20085;-61
2021/10/18 06:59:09;;;;;;;84.47;34.13;;;;;;;;;;4996187;28;20078;-61
2021/10/18 07:01:34;;;;;;;92.10;33.50;;;;;;;;;;4991460;28;20042;-61
2021/10/18 07:03:59;;;;;;;82.85;32.78;;;;;;;;;;4990669;28;20022;-61
2021/10/18 07:06:25;;;;;;;86.47;33.92;;;;;;;;;;4990899;28;20018;-60
2021/10/18 07:08:50;;;;;;;84.82;34.35;;;;;;;;;;4992462;28;20121;-60
2021/10/18 07:11:15;;;;;;;74.80;33.35;;;;;;;;;;4996480;28;20089;-60
2021/10/18 07:13:40;;;;;;;107.07;36.67;;;;;;;;;;4993744;28;20026;-60
2021/10/18 07:16:05;;;;;;;78.68;33.50;;;;;;;;;;5009490;28;20033;-60
2021/10/18 07:18:30;;;;;;;85.78;35.45;;;;;;;;;;5007358;28;20026;-59
2021/10/18 07:20:56;;;;;;;83.60;34.30;;;;;;;;;;4997768;28;20028;-61
2021/10/18 07:23:21;;;;;;;104.38;34.65;;;;;;;;;;4989543;28;20536;-60
2021/10/18 07:25:46;;;;;;;86.22;32.53;;;;;;;;;;4989902;28;20401;-61
2021/10/18 07:28:11;;;;;;;85.53;32.13;;;;;;;;;;4990570;28;20030;-60
2021/10/18 07:30:38;;;;;;;76.57;33.05;;;;;;;;;;4990488;28;20034;-60
2021/10/18 07:33:03;;;;;;;74.88;33.58;;;;;;;;;;4990712;28;20018;-59
2021/10/18 07:35:34;;;;;;;81.60;33.45;;;;;;;;;;4990117;28;20010;-60
2021/10/18 07:37:59;;;;;;;81.68;34.55;;;;;;;;;;4996087;28;20037;-60
2021/10/18 07:40:25;;;;;;;75.65;33.38;;;;;;;;;;4989774;28;20030;-61
2021/10/18 07:42:51;;;;;;;83.03;34.03;;;;;;;;;;4990129;28;20041;-61
2021/10/18 07:45:16;;;;;;;71.10;30.85;;;;;;;;;;4989937;28;20045;-61
2021/10/18 07:47:43;;;;;;;72.00;29.50;;;;;;;;;;4990239;28;20466;-61
2021/10/18 07:50:10;;;;;;;69.93;29.95;;;;;;;;;;4991989;28;20485;-59
2021/10/18 07:52:35;;;;;;;70.80;28.48;;;;;;;;;;5000990;28;20379;-60
2021/10/18 07:55:03;;;;;;;68.20;27.77;;;;;;;;;;4990434;28;20033;-60
2021/10/18 07:57:29;;;;;;;67.78;26.10;;;;;;;;;;5002204;28;20037;-61
2021/10/18 07:59:54;;;;;;;75.28;28.10;;;;;;;;;;4999377;28;20406;-59
2021/10/18 08:02:19;;;;;;;77.30;29.52;;;;;;;;;;5008267;28;20022;-60
2021/10/18 08:04:44;;;;;;;75.78;29.08;;;;;;;;;;4993356;28;20049;-63
2021/10/18 08:07:09;;;;;;;69.80;27.60;;;;;;;;;;4989639;28;20072;-61
2021/10/18 08:09:35;;;;;;;73.70;29.25;;;;;;;;;;4992989;28;20453;-61
2021/10/18 08:12:00;;;;;;;71.57;29.52;;;;;;;;;;4993772;28;20038;-61
2021/10/18 08:14:25;;;;;;;67.38;28.80;;;;;;;;;;4998079;28;20029;-60
2021/10/18 08:16:50;;;;;;;75.53;30.55;;;;;;;;;;4993673;28;20033;-61
2021/10/18 08:19:16;;;;;;;75.32;29.50;;;;;;;;;;4998211;28;20394;-60
2021/10/18 08:21:41;;;;;;;69.55;29.73;;;;;;;;;;4996599;28;20061;-59
2021/10/18 08:24:06;;;;;;;73.97;30.25;;;;;;;;;;4996577;28;20069;-59
2021/10/18 08:26:31;;;;;;;52.60;26.58;;;;;;;;;;4993269;28;20030;-61
2021/10/18 08:28:56;;;;;;;53.67;27.15;;;;;;;;;;4993475;28;20022;-59
2021/10/18 08:31:21;;;;;;;56.67;26.52;;;;;;;;;;4993685;28;20442;-60
2021/10/18 08:33:47;;;;;;;63.40;27.98;;;;;;;;;;4993957;28;20038;-60
2021/10/18 08:36:12;;;;;;;62.85;27.30;;;;;;;;;;4999867;28;20066;-60
2021/10/18 08:38:47;;;;;;;61.30;28.63;;;;;;;;;;4995977;28;20034;-60
2021/10/18 08:41:18;;;;;;;55.75;27.75;;;;;;;;;;4995711;28;20867;-61
2021/10/18 08:46:27;;;;;;;67.40;30.10;;;;;;;;;;4993489;28;20053;-60
2021/10/18 08:48:53;;;;;;;56.38;28.05;;;;;;;;;;4997321;28;20106;-60
2021/10/18 08:51:19;;;;;;;56.70;26.77;;;;;;;;;;4996564;28;20040;-61
2021/10/18 08:53:44;;;;;;;59.10;28.77;;;;;;;;;;4995186;28;20105;-61
2021/10/18 08:56:10;;;;;;;59.47;29.65;;;;;;;;;;4993017;28;20029;-60
2021/10/18 08:58:35;;;;;;;51.50;26.55;;;;;;;;;;4992393;28;20145;-60
2021/10/18 09:01:00;;;;;;;56.20;28.23;;;;;;;;;;4994707;28;20050;-60
2021/10/18 09:03:28;;;;;;;59.40;29.35;;;;;;;;;;4996775;28;20397;-60
2021/10/18 09:06:09;;;;;;;53.55;28.23;;;;;;;;;;4992974;28;20034;-59
2021/10/18 09:08:36;;;;;;;48.53;24.90;;;;;;;;;;4992387;28;20061;-59
2021/10/18 09:11:06;;;;;;;59.60;28.15;;;;;;;;;;4995669;28;20118;-61
2021/10/18 09:13:31;;;;;;;55.17;27.42;;;;;;;;;;4992930;28;20026;-59
2021/10/18 09:15:56;;;;;;;57.60;29.20;;;;;;;;;;4992456;28;20031;-59
2021/10/18 09:18:22;;;;;;;58.33;29.73;;;;;;;;;;4992642;28;20025;-60
2021/10/18 09:20:49;;;;;;;59.47;28.20;;;;;;;;;;4992706;28;20030;-61
2021/10/18 09:23:26;;;;;;;56.15;28.08;;;;;;;;;;4992612;28;20065;-60
2021/10/18 09:26:13;;;;;;;50.45;27.20;;;;;;;;;;4992211;28;20478;-61
2021/10/18 09:28:39;;;;;;;46.95;23.70;;;;;;;;;;4992078;28;20470;-61
2021/10/18 09:31:04;;;;;;;42.50;23.88;;;;;;;;;;4992422;28;20023;-60
2021/10/18 09:33:37;;;;;;;40.53;22.63;;;;;;;;;;4991929;28;20122;-59
2021/10/18 09:36:04;;;;;;;39.55;22.13;;;;;;;;;;4992269;28;20080;-60
2021/10/18 09:38:30;;;;;;;48.00;25.65;;;;;;;;;;4992387;28;20102;-61
2021/10/18 09:40:57;;;;;;;42.72;24.52;;;;;;;;;;4991908;28;20102;-61
2021/10/18 09:43:47;;;;;;;43.65;24.23;;;;;;;;;;4992267;28;20115;-59
2021/10/18 09:46:36;;;;;;;44.17;24.27;;;;;;;;;;5005194;28;20038;-60
2021/10/18 10:53:20;;;;;;;33.25;20.10;;;;;;;;;;4995595;28;20023;-60
2021/10/18 10:55:46;;;;;;;39.50;22.98;;;;;;;;;;4990819;28;20037;-59
2021/10/18 10:58:30;;;;;;;35.38;19.80;;;;;;;;;;4990608;28;20858;-60
2021/10/18 11:00:55;;;;;;;37.92;22.25;;;;;;;;;;4990627;28;20133;-61
2021/10/18 11:03:21;;;;;;;33.88;20.92;;;;;;;;;;4990253;28;20146;-60
2021/10/18 11:05:55;;;;;;;33.38;20.65;;;;;;;;;;4990656;28;20026;-60
2021/10/18 11:08:30;;;;;;;31.58;20.17;;;;;;;;;;4990580;28;20026;-60
2021/10/18 11:10:55;;;;;;;29.70;18.48;;;;;;;;;;4990551;28;20022;-60
2021/10/18 11:13:20;;;;;;;29.15;18.42;;;;;;;;;;4990033;28;20027;-60
2021/10/18 11:15:45;;;;;;;30.48;18.15;;;;;;;;;;5002666;28;20125;-60
2021/10/18 11:18:15;;;;;;;29.45;18.83;;;;;;;;;;5006599;28;20300;-60
2021/10/18 11:20:40;;;;;;;29.92;18.17;;;;;;;;;;4995512;28;20060;-59
2021/10/18 11:23:05;;;;;;;33.25;18.95;;;;;;;;;;4993383;28;20034;-59
2021/10/18 11:25:33;;;;;;;33.65;21.23;;;;;;;;;;4992370;28;20033;-60
2021/10/18 11:28:00;;;;;;;36.47;22.83;;;;;;;;;;4990421;28;20027;-62
2021/10/18 11:30:26;;;;;;;34.38;21.67;;;;;;;;;;4990124;28;20466;-60
2021/10/18 11:32:58;;;;;;;34.30;21.65;;;;;;;;;;4989977;28;20026;-60
2021/10/18 11:35:24;;;;;;;38.60;23.05;;;;;;;;;;4999003;28;20058;-60
2021/10/18 11:37:55;;;;;;;34.90;22.27;;;;;;;;;;5004655;28;20469;-59
2021/10/18 11:40:39;;;;;;;37.15;22.75;;;;;;;;;;5000428;28;20037;-59
2021/10/18 11:43:06;;;;;;;33.53;21.42;;;;;;;;;;4990590;28;20041;-60
2021/10/18 11:45:35;;;;;;;31.58;20.02;;;;;;;;;;4993405;28;20022;-59
2021/10/18 11:48:07;;;;;;;33.00;20.13;;;;;;;;;;4991167;28;20513;-60
2021/10/18 11:50:36;;;;;;;30.63;19.25;;;;;;;;;;4994435;28;20034;-59
2021/10/18 11:53:02;;;;;;;30.92;18.98;;;;;;;;;;4990944;28;20081;-60
2021/10/18 11:55:37;;;;;;;31.02;18.95;;;;;;;;;;4995566;28;20030;-60
2021/10/18 11:58:04;;;;;;;32.92;20.45;;;;;;;;;;4995197;28;20133;-60
2021/10/18 12:00:41;;;;;;;29.05;18.23;;;;;;;;;;4989423;28;20058;-59
2021/10/18 12:03:06;;;;;;;30.98;19.50;;;;;;;;;;4990868;28;20057;-60
2021/10/18 12:05:39;;;;;;;28.80;18.45;;;;;;;;;;5000626;28;20030;-60
2021/10/18 12:08:05;;;;;;;28.92;17.42;;;;;;;;;;4991472;28;20383;-61
2021/10/18 12:10:31;;;;;;;29.83;18.33;;;;;;;;;;4989683;28;20094;-61
2021/10/18 12:13:15;;;;;;;29.33;18.50;;;;;;;;;;4995552;28;20037;-59
2021/10/18 12:15:49;;;;;;;30.60;17.92;;;;;;;;;;4993157;28;20022;-59
2021/10/18 12:18:16;;;;;;;27.88;17.83;;;;;;;;;;4995713;28;20092;-61
2021/10/18 12:20:42;;;;;;;28.52;17.95;;;;;;;;;;4989670;28;20105;-60
2021/10/18 12:23:09;;;;;;;31.05;18.25;;;;;;;;;;4989897;28;20397;-59
2021/10/18 12:25:36;;;;;;;26.98;15.90;;;;;;;;;;4997692;28;20030;-59
2021/10/18 12:28:19;;;;;;;28.90;18.60;;;;;;;;;;4993428;28;20088;-59
2021/10/18 12:30:45;;;;;;;28.27;18.08;;;;;;;;;;4989725;28;20022;-60
2021/10/18 12:33:11;;;;;;;27.90;18.73;;;;;;;;;;4989669;28;20425;-61
2021/10/18 12:35:36;;;;;;;27.63;18.10;;;;;;;;;;4994355;28;20354;-60
2021/10/18 12:38:12;;;;;;;28.38;18.08;;;;;;;;;;5000688;28;20466;-60
2021/10/18 12:40:38;;;;;;;28.65;19.38;;;;;;;;;;4998728;28;20025;-59
2021/10/18 12:43:03;;;;;;;27.80;16.88;;;;;;;;;;4993327;28;20014;-60
2021/10/18 12:45:35;;;;;;;30.15;19.00;;;;;;;;;;4993325;28;20458;-60
2021/10/18 12:48:02;;;;;;;31.33;18.90;;;;;;;;;;4999132;28;20489;-60
2021/10/18 12:50:29;;;;;;;33.22;20.63;;;;;;;;;;5008422;28;20033;-59
2021/10/18 12:52:55;;;;;;;31.52;20.27;;;;;;;;;;5001345;28;20089;-59
2021/10/18 12:55:29;;;;;;;33.25;19.98;;;;;;;;;;4997184;28;20068;-59
2021/10/18 12:57:55;;;;;;;34.35;20.77;;;;;;;;;;4993964;28;20022;-60
2021/10/18 13:00:28;;;;;;;31.17;19.75;;;;;;;;;;4992303;28;20060;-60
2021/10/18 13:02:57;;;;;;;36.67;22.08;;;;;;;;;;4998496;28;20017;-60
2021/10/18 13:05:30;;;;;;;40.80;23.35;;;;;;;;;;4992198;28;20054;-60
2021/10/18 13:08:00;;;;;;;38.78;23.35;;;;;;;;;;4997142;28;20030;-60
2021/10/18 13:10:28;;;;;;;38.05;21.88;;;;;;;;;;4992141;28;20015;-60
2021/10/18 13:12:54;;;;;;;34.03;21.17;;;;;;;;;;4992293;28;20026;-59
2021/10/18 13:15:19;;;;;;;39.22;23.90;;;;;;;;;;5000035;28;20363;-58
2021/10/18 13:17:45;;;;;;;35.53;21.88;;;;;;;;;;5011198;28;20104;-60
2021/10/18 13:20:11;;;;;;;37.67;24.55;;;;;;;;;;5006380;28;20084;-60
2021/10/18 13:22:36;;;;;;;38.38;24.50;;;;;;;;;;5010512;28;20120;-60
2021/10/18 13:25:02;;;;;;;46.13;24.02;;;;;;;;;;4992496;28;20023;-59
2021/10/18 13:27:28;;;;;;;41.30;25.42;;;;;;;;;;4992234;28;20045;-61
2021/10/18 13:29:53;;;;;;;40.47;24.38;;;;;;;;;;4998352;28;20030;-61
2021/10/18 13:32:18;;;;;;;44.97;25.52;;;;;;;;;;4992197;28;20413;-60
2021/10/18 13:34:44;;;;;;;36.30;22.55;;;;;;;;;;4992006;28;20482;-60
2021/10/18 13:37:10;;;;;;;40.22;23.65;;;;;;;;;;4992194;28;20018;-60
2021/10/18 13:39:36;;;;;;;35.47;22.77;;;;;;;;;;4996578;28;20044;-60
2021/10/18 13:42:03;;;;;;;33.38;21.35;;;;;;;;;;5010656;28;20049;-60
2021/10/18 13:44:28;;;;;;;36.88;23.75;;;;;;;;;;5000004;28;20056;-60
2021/10/18 13:46:53;;;;;;;37.53;23.67;;;;;;;;;;4998075;28;20036;-58
2021/10/18 13:49:19;;;;;;;36.23;23.10;;;;;;;;;;5003566;28;20047;-61
2021/10/18 13:51:44;;;;;;;36.03;24.57;;;;;;;;;;5004644;28;20287;-60
2021/10/18 13:54:09;;;;;;;34.33;22.52;;;;;;;;;;5001442;28;20376;-59
2021/10/18 13:56:37;;;;;;;39.88;25.90;;;;;;;;;;4997155;28;20462;-59
2021/10/18 13:59:02;;;;;;;38.47;24.02;;;;;;;;;;4997995;28;20057;-60
2021/10/18 14:01:27;;;;;;;37.55;24.88;;;;;;;;;;4999715;28;20806;-59
2021/10/18 14:03:52;;;;;;;38.60;25.48;;;;;;;;;;4993985;28;20030;-60
2021/10/18 14:06:17;;;;;;;35.47;24.73;;;;;;;;;;4992420;28;20050;-59
2021/10/18 14:08:43;;;;;;;36.00;22.37;;;;;;;;;;4997604;28;20022;-59
2021/10/18 14:11:10;;;;;;;35.07;22.73;;;;;;;;;;4991235;28;20340;-60
2021/10/18 14:13:35;;;;;;;33.05;23.08;;;;;;;;;;4998771;28;20268;-59
2021/10/18 14:16:00;;;;;;;37.35;24.35;;;;;;;;;;5001024;28;20461;-59
2021/10/18 14:18:25;;;;;;;36.80;24.30;;;;;;;;;;4996734;28;20037;-59
2021/10/18 14:20:51;;;;;;;40.13;24.20;;;;;;;;;;5001180;28;20631;-59
2021/10/18 14:23:16;;;;;;;33.28;21.55;;;;;;;;;;4997698;28;20014;-59
2021/10/18 14:25:42;;;;;;;32.70;21.40;;;;;;;;;;5000889;28;20018;-58
2021/10/18 14:28:07;;;;;;;31.52;19.58;;;;;;;;;;4999053;28;20054;-59
2021/10/18 14:30:33;;;;;;;34.43;23.90;;;;;;;;;;4991929;28;20030;-59
2021/10/18 14:32:59;;;;;;;30.65;21.17;;;;;;;;;;4996649;28;20670;-62
2021/10/18 14:35:24;;;;;;;34.00;23.50;;;;;;;;;;4995740;28;20116;-59
2021/10/18 14:37:49;;;;;;;32.60;21.83;;;;;;;;;;4995185;28;20034;-59
2021/10/18 14:40:15;;;;;;;33.10;21.60;;;;;;;;;;4991004;28;20019;-60
2021/10/18 14:42:40;;;;;;;34.72;21.50;;;;;;;;;;4994759;28;20026;-59
2021/10/18 14:45:06;;;;;;;32.42;20.92;;;;;;;;;;4990669;28;20109;-60
2021/10/18 14:47:34;;;;;;;34.67;21.90;;;;;;;;;;4999217;28;20025;-59
2021/10/18 14:49:59;;;;;;;28.92;20.17;;;;;;;;;;5001753;28;20118;-59
2021/10/18 14:52:24;;;;;;;32.58;21.95;;;;;;;;;;5010749;28;20113;-59
2021/10/18 14:54:49;;;;;;;34.10;23.00;;;;;;;;;;4990263;28;20037;-60
2021/10/18 14:57:15;;;;;;;36.80;23.13;;;;;;;;;;4993524;28;20270;-60
2021/10/18 14:59:41;;;;;;;32.83;22.60;;;;;;;;;;4995019;28;20058;-60
2021/10/18 15:02:07;;;;;;;32.58;20.85;;;;;;;;;;4991924;28;20025;-60
2021/10/18 15:04:32;;;;;;;29.30;19.75;;;;;;;;;;4994175;28;20053;-59
2021/10/18 15:07:00;;;;;;;33.17;22.10;;;;;;;;;;4990430;28;20402;-59
2021/10/18 15:09:25;;;;;;;29.85;19.90;;;;;;;;;;4990041;28;20365;-59
2021/10/18 15:11:50;;;;;;;31.92;19.75;;;;;;;;;;4990769;28;20097;-61
2021/10/18 15:14:15;;;;;;;29.38;19.35;;;;;;;;;;5000905;28;20022;-60
2021/10/18 15:16:40;;;;;;;30.42;21.23;;;;;;;;;;4997489;28;20068;-60
2021/10/18 15:19:06;;;;;;;34.33;22.15;;;;;;;;;;4999111;28;20299;-59